Terminal Aerodrome Forecast
Issued by NWS Lake Charles, LA

Home | Current Version | Previous Version | Text Only | Print | Product List | Glossary On
Versions: 1 2 3 4 5 6 7 8 9 10 11 12 13 14 15 16 17 18
000
FTUS44 KLCH 011720
TAFAEX
TAF
KAEX 011720Z 0118/0218 15008KT P6SM SCT025
     FM020000 10008KT P6SM VCSH BKN025 OVC035
      TEMPO 0208/0212 2SM TSRA OVC008CB
     FM021200 34005KT P6SM -SHRA VCTS BKN025 OVC035CB PROB30
      0212/0218 VRB15G25KT 2SM TSRA OVC008CB=

USA.gov is the U.S. government's official web portal to all federal, state and local government web resources and services.